sensor_id;sensor_type;location;lat;lon;timestamp;pressure;altitude;pressure_sealevel;temperature;humidity
27425;BME280;15244;49.088;11.886;2023-04-01T00:01:52;94383.88;;;9.98;55.42
27425;BME280;15244;49.088;11.886;2023-04-01T00:07:07;94385.47;;;9.96;55.71
27425;BME280;15244;49.088;11.886;2023-04-01T00:12:37;94378.38;;;10.02;55.43
27425;BME280;15244;49.088;11.886;2023-04-01T00:17:54;94388.19;;;9.96;55.26
27425;BME280;15244;49.088;11.886;2023-04-01T00:23:22;94386.63;;;9.95;55.41
27425;BME280;15244;49.088;11.886;2023-04-01T00:28:38;94400.72;;;9.90;55.79
27425;BME280;15244;49.088;11.886;2023-04-01T00:34:07;94383.97;;;9.91;55.50
27425;BME280;15244;49.088;11.886;2023-04-01T00:39:22;94378.81;;;9.97;55.38
27425;BME280;15244;49.088;11.886;2023-04-01T00:44:54;94370.25;;;9.98;55.15
27425;BME280;15244;49.088;11.886;2023-04-01T00:50:25;94380.72;;;10.00;55.23
27425;BME280;15244;49.088;11.886;2023-04-01T00:55:47;94377.41;;;9.89;55.50
27425;BME280;15244;49.088;11.886;2023-04-01T01:01:20;94374.97;;;9.94;55.21
27425;BME280;15244;49.088;11.886;2023-04-01T01:06:55;94372.50;;;9.80;55.50
27425;BME280;15244;49.088;11.886;2023-04-01T01:12:46;94365.84;;;9.81;55.33
27425;BME280;15244;49.088;11.886;2023-04-01T01:29:34;94362.66;;;9.86;55.18
27425;BME280;15244;49.088;11.886;2023-04-01T01:35:26;94358.03;;;9.83;55.07
27425;BME280;15244;49.088;11.886;2023-04-01T01:40:50;94365.31;;;9.90;55.07
27425;BME280;15244;49.088;11.886;2023-04-01T01:46:22;94369.97;;;9.93;55.30
27425;BME280;15244;49.088;11.886;2023-04-01T01:51:38;94372.69;;;9.93;55.25
27425;BME280;15244;49.088;11.886;2023-04-01T01:57:10;94371.13;;;9.92;55.04
27425;BME280;15244;49.088;11.886;2023-04-01T02:02:31;94381.56;;;9.97;55.44
27425;BME280;15244;49.088;11.886;2023-04-01T02:08:05;94362.50;;;9.97;55.17
27425;BME280;15244;49.088;11.886;2023-04-01T02:13:27;94363.38;;;9.90;55.30
27425;BME280;15244;49.088;11.886;2023-04-01T02:18:59;94362.09;;;9.98;55.30
27425;BME280;15244;49.088;11.886;2023-04-01T02:24:15;94366.81;;;9.94;55.07
27425;BME280;15244;49.088;11.886;2023-04-01T02:29:45;94369.13;;;9.96;55.29
27425;BME280;15244;49.088;11.886;2023-04-01T02:35:01;94370.28;;;9.95;55.09
27425;BME280;15244;49.088;11.886;2023-04-01T02:40:29;94384.28;;;9.97;55.23
27425;BME280;15244;49.088;11.886;2023-04-01T02:45:44;94383.16;;;9.94;55.26
27425;BME280;15244;49.088;11.886;2023-04-01T02:51:13;94381.25;;;9.91;55.48
27425;BME280;15244;49.088;11.886;2023-04-01T02:56:28;94397.66;;;9.88;55.54
27425;BME280;15244;49.088;11.886;2023-04-01T03:01:57;94405.03;;;9.87;55.40
27425;BME280;15244;49.088;11.886;2023-04-01T03:07:15;94399.13;;;9.92;55.20
27425;BME280;15244;49.088;11.886;2023-04-01T03:12:43;94402.31;;;9.87;55.42
27425;BME280;15244;49.088;11.886;2023-04-01T03:17:58;94399.75;;;9.76;55.74
27425;BME280;15244;49.088;11.886;2023-04-01T03:23:31;94405.94;;;9.77;55.80
27425;BME280;15244;49.088;11.886;2023-04-01T03:28:47;94414.53;;;9.75;56.00
27425;BME280;15244;49.088;11.886;2023-04-01T03:34:18;94405.34;;;9.66;56.22
27425;BME280;15244;49.088;11.886;2023-04-01T03:39:33;94407.31;;;9.62;56.06
27425;BME280;15244;49.088;11.886;2023-04-01T03:45:03;94415.75;;;9.71;56.02
27425;BME280;15244;49.088;11.886;2023-04-01T03:50:24;94424.44;;;9.62;56.00
27425;BME280;15244;49.088;11.886;2023-04-01T03:55:53;94406.19;;;9.59;55.98
27425;BME280;15244;49.088;11.886;2023-04-01T04:01:21;94416.63;;;9.64;56.10
27425;BME280;15244;49.088;11.886;2023-04-01T04:06:53;94420.91;;;9.65;55.93
27425;BME280;15244;49.088;11.886;2023-04-01T04:12:31;94427.09;;;9.66;56.07
27425;BME280;15244;49.088;11.886;2023-04-01T04:18:04;94431.41;;;9.63;55.71
27425;BME280;15244;49.088;11.886;2023-04-01T04:23:20;94439.22;;;9.61;56.04
27425;BME280;15244;49.088;11.886;2023-04-01T04:28:53;94434.91;;;9.64;56.05
27425;BME280;15244;49.088;11.886;2023-04-01T04:34:08;94441.91;;;9.65;56.00
27425;BME280;15244;49.088;11.886;2023-04-01T04:39:37;94442.25;;;9.67;56.05
27425;BME280;15244;49.088;11.886;2023-04-01T04:45:02;94443.44;;;9.66;55.86
27425;BME280;15244;49.088;11.886;2023-04-01T04:50:35;94441.47;;;9.66;55.92
27425;BME280;15244;49.088;11.886;2023-04-01T04:55:52;94448.81;;;9.69;56.05
27425;BME280;15244;49.088;11.886;2023-04-01T05:01:28;94442.91;;;9.74;55.69
27425;BME280;15244;49.088;11.886;2023-04-01T05:06:45;94453.91;;;9.67;55.98
27425;BME280;15244;49.088;11.886;2023-04-01T05:12:15;94460.06;;;9.71;56.13
27425;BME280;15244;49.088;11.886;2023-04-01T05:17:36;94467.91;;;9.66;56.21
27425;BME280;15244;49.088;11.886;2023-04-01T05:23:05;94457.81;;;9.66;56.14
27425;BME280;15244;49.088;11.886;2023-04-01T05:28:22;94470.69;;;9.62;56.08
27425;BME280;15244;49.088;11.886;2023-04-01T05:33:51;94467.28;;;9.54;56.17
27425;BME280;15244;49.088;11.886;2023-04-01T05:39:08;94455.53;;;9.61;56.36
27425;BME280;15244;49.088;11.886;2023-04-01T05:44:38;94456.66;;;9.64;56.29
27425;BME280;15244;49.088;11.886;2023-04-01T05:50:42;94464.44;;;9.65;56.20
27425;BME280;15244;49.088;11.886;2023-04-01T05:56:02;94472.53;;;9.69;56.33
27425;BME280;15244;49.088;11.886;2023-04-01T06:01:32;94462.94;;;9.61;56.24
27425;BME280;15244;49.088;11.886;2023-04-01T06:06:48;94458.22;;;9.65;56.18
27425;BME280;15244;49.088;11.886;2023-04-01T06:12:45;94465.94;;;9.70;56.01
27425;BME280;15244;49.088;11.886;2023-04-01T06:29:50;94482.28;;;9.66;55.85
27425;BME280;15244;49.088;11.886;2023-04-01T06:41:05;94497.78;;;9.73;56.33
27425;BME280;15244;49.088;11.886;2023-04-01T06:46:45;94497.72;;;9.76;56.25
27425;BME280;15244;49.088;11.886;2023-04-01T06:58:30;94487.88;;;9.86;56.10
27425;BME280;15244;49.088;11.886;2023-04-01T07:03:55;94485.16;;;9.86;56.51
27425;BME280;15244;49.088;11.886;2023-04-01T07:09:34;94484.25;;;9.96;56.08
27425;BME280;15244;49.088;11.886;2023-04-01T07:15:25;94480.38;;;9.94;56.13
27425;BME280;15244;49.088;11.886;2023-04-01T07:20:55;94487.72;;;10.01;56.12
27425;BME280;15244;49.088;11.886;2023-04-01T07:26:20;94489.97;;;10.06;55.84
27425;BME280;15244;49.088;11.886;2023-04-01T07:32:13;94480.59;;;10.07;55.82
27425;BME280;15244;49.088;11.886;2023-04-01T07:37:45;94497.69;;;10.11;55.95
27425;BME280;15244;49.088;11.886;2023-04-01T07:43:42;94478.91;;;10.16;55.78
27425;BME280;15244;49.088;11.886;2023-04-01T07:49:16;94483.44;;;10.27;55.51
27425;BME280;15244;49.088;11.886;2023-04-01T08:00:36;94503.81;;;10.46;55.02
27425;BME280;15244;49.088;11.886;2023-04-01T08:12:22;94501.34;;;10.55;55.13
27425;BME280;15244;49.088;11.886;2023-04-01T08:24:14;94487.44;;;10.73;55.03
27425;BME280;15244;49.088;11.886;2023-04-01T08:30:23;94479.88;;;10.84;54.48
27425;BME280;15244;49.088;11.886;2023-04-01T08:35:49;94471.13;;;10.93;54.73
27425;BME280;15244;49.088;11.886;2023-04-01T09:11:20;94451.75;;;11.31;53.20
27425;BME280;15244;49.088;11.886;2023-04-01T09:17:55;94471.13;;;11.36;52.69
27425;BME280;15244;49.088;11.886;2023-04-01T09:30:19;94456.38;;;11.34;52.21
27425;BME280;15244;49.088;11.886;2023-04-01T09:41:39;94468.84;;;11.35;52.05
27425;BME280;15244;49.088;11.886;2023-04-01T09:53:21;94466.91;;;11.32;51.14
27425;BME280;15244;49.088;11.886;2023-04-01T09:59:03;94457.22;;;11.50;52.05
27425;BME280;15244;49.088;11.886;2023-04-01T10:17:34;94467.28;;;11.54;52.38
27425;BME280;15244;49.088;11.886;2023-04-01T11:21:49;94447.53;;;11.86;52.90
27425;BME280;15244;49.088;11.886;2023-04-01T11:27:44;94464.91;;;11.76;53.21
27425;BME280;15244;49.088;11.886;2023-04-01T11:33:26;94454.91;;;11.49;54.17
27425;BME280;15244;49.088;11.886;2023-04-01T11:39:04;94482.19;;;11.49;54.17
27425;BME280;15244;49.088;11.886;2023-04-01T11:50:42;94472.19;;;11.42;54.69
27425;BME280;15244;49.088;11.886;2023-04-01T11:56:19;94470.72;;;11.38;55.27
27425;BME280;15244;49.088;11.886;2023-04-01T12:02:08;94471.13;;;11.36;55.34
27425;BME280;15244;49.088;11.886;2023-04-01T12:13:43;94476.63;;;11.13;55.81
27425;BME280;15244;49.088;11.886;2023-04-01T12:19:20;94479.59;;;10.98;56.02
27425;BME280;15244;49.088;11.886;2023-04-01T12:48:16;94472.56;;;10.77;56.65
27425;BME280;15244;49.088;11.886;2023-04-01T12:54:02;94478.03;;;10.77;56.98
27425;BME280;15244;49.088;11.886;2023-04-01T13:00:03;94487.78;;;10.75;57.13
27425;BME280;15244;49.088;11.886;2023-04-01T13:11:13;94483.59;;;10.70;57.18
27425;BME280;15244;49.088;11.886;2023-04-01T13:16:31;94498.63;;;10.78;56.71
27425;BME280;15244;49.088;11.886;2023-04-01T13:22:23;94495.03;;;10.85;56.80
27425;BME280;15244;49.088;11.886;2023-04-01T13:27:50;94511.75;;;10.87;56.88
27425;BME280;15244;49.088;11.886;2023-04-01T13:33:42;94500.00;;;10.90;56.99
27425;BME280;15244;49.088;11.886;2023-04-01T13:39:31;94508.19;;;10.90;56.81
27425;BME280;15244;49.088;11.886;2023-04-01T13:45:21;94505.94;;;10.85;57.22
27425;BME280;15244;49.088;11.886;2023-04-01T14:02:38;94523.34;;;10.91;57.19
27425;BME280;15244;49.088;11.886;2023-04-01T14:08:20;94523.72;;;10.93;57.54
27425;BME280;15244;49.088;11.886;2023-04-01T14:25:22;94520.09;;;11.00;57.56
27425;BME280;15244;49.088;11.886;2023-04-01T14:37:03;94520.22;;;10.93;57.64
27425;BME280;15244;49.088;11.886;2023-04-01T14:42:51;94516.44;;;10.87;57.73
27425;BME280;15244;49.088;11.886;2023-04-01T14:48:38;94518.84;;;10.81;57.83
27425;BME280;15244;49.088;11.886;2023-04-01T14:54:30;94530.53;;;10.81;57.76
27425;BME280;15244;49.088;11.886;2023-04-01T14:59:52;94524.25;;;10.84;58.14
27425;BME280;15244;49.088;11.886;2023-04-01T15:05:49;94527.38;;;10.83;57.80
27425;BME280;15244;49.088;11.886;2023-04-01T15:28:39;94540.53;;;10.88;58.09
27425;BME280;15244;49.088;11.886;2023-04-01T16:03:00;94549.56;;;11.09;57.99
27425;BME280;15244;49.088;11.886;2023-04-01T16:14:28;94560.44;;;11.12;58.02
27425;BME280;15244;49.088;11.886;2023-04-01T16:19:56;94561.59;;;11.11;58.44
27425;BME280;15244;49.088;11.886;2023-04-01T16:25:36;94565.16;;;11.08;58.20
27425;BME280;15244;49.088;11.886;2023-04-01T16:31:15;94572.19;;;11.09;58.37
27425;BME280;15244;49.088;11.886;2023-04-01T16:37:07;94578.03;;;11.07;58.58
27425;BME280;15244;49.088;11.886;2023-04-01T16:42:53;94574.09;;;11.09;58.47
27425;BME280;15244;49.088;11.886;2023-04-01T16:48:56;94573.72;;;11.10;58.46
27425;BME280;15244;49.088;11.886;2023-04-01T17:00:27;94600.91;;;11.14;58.20
27425;BME280;15244;49.088;11.886;2023-04-01T17:06:03;94606.53;;;11.03;58.43
27425;BME280;15244;49.088;11.886;2023-04-01T17:12:10;94617.53;;;10.99;58.28
27425;BME280;15244;49.088;11.886;2023-04-01T17:29:26;94628.03;;;10.74;58.59
27425;BME280;15244;49.088;11.886;2023-04-01T17:35:11;94624.28;;;10.60;58.61
27425;BME280;15244;49.088;11.886;2023-04-01T17:40:41;94625.41;;;10.63;58.29
27425;BME280;15244;49.088;11.886;2023-04-01T17:46:33;94631.66;;;10.63;58.23
27425;BME280;15244;49.088;11.886;2023-04-01T17:52:33;94641.00;;;10.62;57.93
27425;BME280;15244;49.088;11.886;2023-04-01T17:58:12;94635.53;;;10.66;58.12
27425;BME280;15244;49.088;11.886;2023-04-01T18:15:32;94651.06;;;10.69;57.68
27425;BME280;15244;49.088;11.886;2023-04-01T18:26:42;94666.50;;;10.79;57.78
27425;BME280;15244;49.088;11.886;2023-04-01T18:32:22;94672.72;;;10.80;57.79
27425;BME280;15244;49.088;11.886;2023-04-01T18:38:13;94674.72;;;10.76;57.48
27425;BME280;15244;49.088;11.886;2023-04-01T19:00:37;94716.28;;;10.83;57.19
27425;BME280;15244;49.088;11.886;2023-04-01T19:05:56;94720.88;;;10.90;57.18
27425;BME280;15244;49.088;11.886;2023-04-01T19:11:43;94723.97;;;10.92;57.36
27425;BME280;15244;49.088;11.886;2023-04-01T19:17:13;94724.75;;;10.93;57.24
27425;BME280;15244;49.088;11.886;2023-04-01T19:40:03;94736.69;;;10.72;57.55
27425;BME280;15244;49.088;11.886;2023-04-01T19:45:43;94741.84;;;10.66;57.62
27425;BME280;15244;49.088;11.886;2023-04-01T19:51:21;94752.75;;;10.62;58.08
27425;BME280;15244;49.088;11.886;2023-04-01T20:08:49;94756.63;;;10.65;57.58
27425;BME280;15244;49.088;11.886;2023-04-01T20:14:29;94754.59;;;10.73;57.66
27425;BME280;15244;49.088;11.886;2023-04-01T20:20:20;94763.50;;;10.77;57.31
27425;BME280;15244;49.088;11.886;2023-04-01T20:32:03;94765.81;;;10.78;57.30
27425;BME280;15244;49.088;11.886;2023-04-01T20:37:53;94767.75;;;10.81;57.24
27425;BME280;15244;49.088;11.886;2023-04-01T20:49:34;94782.53;;;10.80;57.25
27425;BME280;15244;49.088;11.886;2023-04-01T20:55:13;94777.47;;;10.82;56.92
27425;BME280;15244;49.088;11.886;2023-04-01T21:00:36;94788.31;;;10.86;57.13
27425;BME280;15244;49.088;11.886;2023-04-01T21:12:22;94786.38;;;10.87;56.84
27425;BME280;15244;49.088;11.886;2023-04-01T21:18:00;94783.69;;;10.83;56.89
27425;BME280;15244;49.088;11.886;2023-04-01T21:23:35;94793.88;;;10.75;56.78
27425;BME280;15244;49.088;11.886;2023-04-01T21:52:13;94817.91;;;10.53;57.09
27425;BME280;15244;49.088;11.886;2023-04-01T22:03:56;94826.03;;;10.57;56.88
27425;BME280;15244;49.088;11.886;2023-04-01T22:09:32;94822.88;;;10.62;57.10
27425;BME280;15244;49.088;11.886;2023-04-01T22:15:28;94823.22;;;10.64;56.91
27425;BME280;15244;49.088;11.886;2023-04-01T22:20:55;94828.25;;;10.69;57.19
27425;BME280;15244;49.088;11.886;2023-04-01T22:32:51;94833.56;;;10.80;56.78
27425;BME280;15244;49.088;11.886;2023-04-01T22:43:54;94845.63;;;10.82;57.10
27425;BME280;15244;49.088;11.886;2023-04-01T22:49:30;94849.88;;;10.83;56.90
27425;BME280;15244;49.088;11.886;2023-04-01T22:54:57;94848.75;;;10.81;56.71
27425;BME280;15244;49.088;11.886;2023-04-01T23:00:36;94851.84;;;10.83;56.95
27425;BME280;15244;49.088;11.886;2023-04-01T23:05:58;94852.97;;;10.85;56.89
27425;BME280;15244;49.088;11.886;2023-04-01T23:11:46;94860.41;;;10.85;56.91
27425;BME280;15244;49.088;11.886;2023-04-01T23:17:16;94865.47;;;10.83;56.77
27425;BME280;15244;49.088;11.886;2023-04-01T23:22:57;94871.69;;;10.83;56.86
27425;BME280;15244;49.088;11.886;2023-04-01T23:33:42;94883.47;;;10.73;57.07
27425;BME280;15244;49.088;11.886;2023-04-01T23:39:05;94884.31;;;10.70;57.17
27425;BME280;15244;49.088;11.886;2023-04-01T23:44:42;94900.66;;;10.70;56.92
27425;BME280;15244;49.088;11.886;2023-04-01T23:50:01;94895.28;;;10.63;57.16
27425;BME280;15244;49.088;11.886;2023-04-01T23:55:33;94898.00;;;10.63;57.46
